Time;durP1;ratioP1;P1;durP2;ratioP2;P2;SDS_P1;SDS_P2;PMS_P1;PMS_P2;Temp;Humidity;BMP_temperature;BMP_pressure;BME280_temperature;BME280_humidity;BME280_pressure;Samples;Min_cycle;Max_cycle;Signal;HPM_P1;HPM_P2
2022/12/25 00:01:04;;;;;;;46.90;15.35;;;;;;;;;;5067906;28;20080;-66
2022/12/25 00:03:30;;;;;;;39.97;14.70;;;;;;;;;;5068730;28;20047;-66
2022/12/25 00:05:58;;;;;;;42.33;14.95;;;;;;;;;;5050254;28;20045;-66
2022/12/25 00:08:24;;;;;;;42.63;14.55;;;;;;;;;;5067450;28;20044;-66
2022/12/25 00:10:56;;;;;;;47.97;15.63;;;;;;;;;;5079433;28;20044;-66
2022/12/25 00:13:22;;;;;;;;;;;;;;;;;;5087475;28;20043;-66
2022/12/25 00:15:48;;;;;;;38.35;14.57;;;;;;;;;;5087309;28;20578;-66
2022/12/25 00:18:14;;;;;;;43.25;14.73;;;;;;;;;;5058639;28;20044;-66
2022/12/25 00:20:40;;;;;;;43.67;13.85;;;;;;;;;;5064475;28;20044;-66
2022/12/25 00:23:06;;;;;;;36.97;14.43;;;;;;;;;;5050611;28;20053;-66
2022/12/25 00:25:32;;;;;;;34.92;13.60;;;;;;;;;;5050810;28;20506;-66
2022/12/25 00:27:57;;;;;;;41.50;15.27;;;;;;;;;;5068748;28;20036;-66
2022/12/25 00:30:23;;;;;;;42.05;14.07;;;;;;;;;;5069294;28;20047;-66
2022/12/25 00:32:49;;;;;;;44.00;14.27;;;;;;;;;;5067576;28;20047;-66
2022/12/25 00:35:15;;;;;;;43.42;14.10;;;;;;;;;;5054267;28;20040;-66
2022/12/25 00:37:41;;;;;;;40.83;13.32;;;;;;;;;;5047656;28;20048;-66
2022/12/25 00:40:08;;;;;;;41.10;16.73;;;;;;;;;;5049142;28;20063;-66
2022/12/25 00:42:34;;;;;;;47.40;15.52;;;;;;;;;;5047285;28;20074;-66
2022/12/25 00:45:00;;;;;;;46.35;14.68;;;;;;;;;;5049169;28;20083;-66
2022/12/25 00:47:26;;;;;;;41.65;14.52;;;;;;;;;;5047763;28;20148;-66
2022/12/25 00:49:52;;;;;;;46.72;14.55;;;;;;;;;;5047263;28;20461;-66
2022/12/25 00:52:18;;;;;;;47.67;14.50;;;;;;;;;;5062120;28;20043;-66
2022/12/25 00:54:44;;;;;;;46.03;14.77;;;;;;;;;;5067308;28;20414;-66
2022/12/25 00:57:10;;;;;;;51.67;15.57;;;;;;;;;;5066864;28;20114;-66
2022/12/25 00:59:36;;;;;;;48.20;16.17;;;;;;;;;;5069598;28;20048;-66
2022/12/25 01:04:46;;;;;;;45.28;15.80;;;;;;;;;;5070812;28;20048;-66
2022/12/25 01:07:12;;;;;;;50.50;15.82;;;;;;;;;;5071152;28;20392;-66
2022/12/25 01:12:23;;;;;;;35.50;15.40;;;;;;;;;;5092541;28;20082;-66
2022/12/25 01:14:49;;;;;;;50.30;15.88;;;;;;;;;;5092610;28;20064;-66
2022/12/25 01:17:15;;;;;;;40.50;14.75;;;;;;;;;;5091236;28;20059;-66
2022/12/25 01:19:41;;;;;;;38.13;14.68;;;;;;;;;;5092264;28;20143;-66
2022/12/25 01:22:07;;;;;;;41.97;15.02;;;;;;;;;;5092535;28;20135;-66
2022/12/25 01:24:33;;;;;;;46.55;15.48;;;;;;;;;;5091522;28;20100;-66
2022/12/25 01:26:59;;;;;;;41.80;16.33;;;;;;;;;;5072828;28;20044;-66
2022/12/25 01:29:25;;;;;;;50.10;16.00;;;;;;;;;;5072129;28;20045;-66
2022/12/25 01:31:51;;;;;;;47.92;15.10;;;;;;;;;;5070767;28;20038;-66
2022/12/25 01:34:17;;;;;;;41.67;14.70;;;;;;;;;;5070382;28;20482;-66
2022/12/25 01:36:43;;;;;;;42.90;14.75;;;;;;;;;;5054070;28;20461;-66
2022/12/25 01:39:09;;;;;;;44.15;14.77;;;;;;;;;;5071840;28;20044;-66
2022/12/25 01:41:35;;;;;;;43.03;14.25;;;;;;;;;;5071932;28;20116;-66
2022/12/25 01:44:04;;;;;;;46.03;14.40;;;;;;;;;;5070854;28;20044;-66
2022/12/25 01:46:30;;;;;;;52.17;16.50;;;;;;;;;;5070446;28;20123;-66
2022/12/25 01:48:58;;;;;;;46.92;14.70;;;;;;;;;;5071747;28;20048;-66
2022/12/25 01:51:39;;;;;;;47.53;15.40;;;;;;;;;;5054011;28;20063;-66
2022/12/25 01:54:06;;;;;;;53.67;15.90;;;;;;;;;;5070262;28;20420;-66
2022/12/25 01:56:32;;;;;;;51.30;16.02;;;;;;;;;;5071625;28;20033;-66
2022/12/25 01:58:59;;;;;;;63.92;15.75;;;;;;;;;;5071398;28;20076;-66
2022/12/25 02:01:25;;;;;;;50.83;16.20;;;;;;;;;;5071567;28;20391;-66
2022/12/25 02:03:53;;;;;;;55.42;16.33;;;;;;;;;;5069968;28;20470;-66
2022/12/25 02:06:19;;;;;;;52.38;16.48;;;;;;;;;;5071734;28;20425;-66
2022/12/25 02:08:45;;;;;;;50.47;15.95;;;;;;;;;;5069126;28;20182;-66
2022/12/25 02:11:55;;;;;;;52.15;15.68;;;;;;;;;;5078317;28;20486;-66
2022/12/25 02:13:57;;;;;;;49.25;16.27;;;;;;;;;;5091452;28;20052;-66
2022/12/25 02:16:25;;;;;;;39.03;16.17;;;;;;;;;;5092016;28;20390;-66
2022/12/25 02:18:53;;;;;;;56.70;15.35;;;;;;;;;;5089848;28;20518;-66
2022/12/25 02:21:38;;;;;;;51.00;17.08;;;;;;;;;;5091730;28;20059;-66
2022/12/25 02:24:10;;;;;;;53.20;15.18;;;;;;;;;;5090285;28;20040;-66
2022/12/25 02:26:39;;;;;;;53.42;15.75;;;;;;;;;;5076783;28;20407;-66
2022/12/25 02:29:09;;;;;;;45.10;15.32;;;;;;;;;;5071482;28;20491;-66
2022/12/25 02:31:49;;;;;;;45.85;15.27;;;;;;;;;;5070048;28;20051;-66
2022/12/25 02:34:30;;;;;;;63.75;16.67;;;;;;;;;;5071008;28;20531;-66
2022/12/25 02:36:56;;;;;;;49.50;15.63;;;;;;;;;;5069800;28;20127;-66
2022/12/25 02:42:13;;;;;;;49.55;14.88;;;;;;;;;;5069137;28;20131;-66
2022/12/25 03:06:58;;;;;;;42.00;14.88;;;;;;;;;;5070229;28;20060;-66
2022/12/25 03:12:15;;;;;;;50.42;16.05;;;;;;;;;;5050456;28;20140;-66
2022/12/25 03:17:46;;;;;;;43.58;14.05;;;;;;;;;;5010698;28;20052;-66
2022/12/25 03:28:27;;;;;;;46.22;14.25;;;;;;;;;;5070242;28;20096;-66
2022/12/25 03:31:12;;;;;;;40.65;14.35;;;;;;;;;;5070029;28;20118;-66
2022/12/25 04:37:44;;;;;;;51.35;16.40;;;;;;;;;;5067790;28;20486;-66
2022/12/25 04:40:10;;;;;;;52.60;17.10;;;;;;;;;;5067126;28;20044;-66
2022/12/25 04:42:36;;;;;;;58.75;18.23;;;;;;;;;;5068934;28;20066;-66
2022/12/25 04:45:02;;;;;;;58.65;19.02;;;;;;;;;;5067551;28;20445;-66
2022/12/25 04:47:28;;;;;;;59.38;19.17;;;;;;;;;;5067072;28;20128;-66
2022/12/25 04:49:54;;;;;;;53.67;18.00;;;;;;;;;;5067816;28;20075;-66
2022/12/25 04:52:20;;;;;;;49.88;18.40;;;;;;;;;;5067832;28;20036;-66
2022/12/25 04:54:46;;;;;;;68.80;20.67;;;;;;;;;;5066899;28;20090;-66
2022/12/25 04:57:12;;;;;;;66.95;22.73;;;;;;;;;;5068754;28;20036;-66
2022/12/25 04:59:38;;;;;;;71.55;21.30;;;;;;;;;;5068954;28;20052;-66
2022/12/25 05:02:03;;;;;;;64.80;21.50;;;;;;;;;;5066876;28;20056;-66
2022/12/25 05:04:29;;;;;;;62.28;21.77;;;;;;;;;;5068816;28;20221;-66
2022/12/25 05:06:55;;;;;;;69.47;20.60;;;;;;;;;;5066983;28;20431;-66
2022/12/25 05:09:21;;;;;;;69.10;21.92;;;;;;;;;;5060787;28;20119;-66
2022/12/25 05:11:47;;;;;;;79.45;22.25;;;;;;;;;;5086267;28;20044;-66
2022/12/25 05:14:13;;;;;;;66.47;21.58;;;;;;;;;;5088968;28;20115;-66
2022/12/25 05:16:39;;;;;;;64.72;21.73;;;;;;;;;;5086896;28;20048;-66
2022/12/25 05:19:05;;;;;;;74.43;23.17;;;;;;;;;;5087135;28;20537;-66
2022/12/25 05:21:31;;;;;;;67.80;22.08;;;;;;;;;;5088830;28;20075;-66
2022/12/25 05:23:57;;;;;;;76.28;22.45;;;;;;;;;;5088551;28;20044;-66
2022/12/25 05:26:24;;;;;;;69.13;21.77;;;;;;;;;;5075970;28;20131;-66
2022/12/25 05:28:50;;;;;;;69.22;22.70;;;;;;;;;;5067301;28;20129;-66
2022/12/25 05:31:17;;;;;;;62.67;22.40;;;;;;;;;;5066501;28;20085;-66
2022/12/25 05:33:43;;;;;;;69.75;22.08;;;;;;;;;;5066936;28;20036;-66
2022/12/25 05:36:10;;;;;;;55.35;20.60;;;;;;;;;;5068455;28;20044;-66
2022/12/25 05:38:37;;;;;;;64.38;22.55;;;;;;;;;;5066869;28;20576;-66
2022/12/25 05:41:03;;;;;;;66.97;22.60;;;;;;;;;;5066911;28;20410;-66
2022/12/25 05:43:29;;;;;;;70.30;23.30;;;;;;;;;;5068109;28;20072;-66
2022/12/25 05:45:55;;;;;;;62.78;22.10;;;;;;;;;;5067798;28;20133;-66
2022/12/25 05:48:21;;;;;;;69.20;22.58;;;;;;;;;;5072079;28;20076;-66
2022/12/25 05:50:48;;;;;;;72.07;23.63;;;;;;;;;;5070681;28;20437;-66
2022/12/25 05:53:14;;;;;;;60.03;21.15;;;;;;;;;;5071460;28;20036;-66
2022/12/25 05:55:42;;;;;;;63.25;22.40;;;;;;;;;;5070681;28;20402;-66
2022/12/25 05:58:09;;;;;;;66.03;23.00;;;;;;;;;;5071973;28;20067;-66
2022/12/25 06:00:35;;;;;;;65.85;23.05;;;;;;;;;;5069985;28;20291;-66
2022/12/25 06:03:01;;;;;;;64.18;24.02;;;;;;;;;;5071506;28;20056;-66
2022/12/25 06:05:27;;;;;;;75.05;24.42;;;;;;;;;;5071995;28;20041;-66
2022/12/25 06:07:53;;;;;;;71.35;25.58;;;;;;;;;;5071357;28;20071;-66
2022/12/25 06:10:19;;;;;;;66.18;23.00;;;;;;;;;;5070662;28;20044;-66
2022/12/25 06:12:45;;;;;;;69.32;24.08;;;;;;;;;;5091629;28;20040;-66
2022/12/25 06:15:11;;;;;;;67.38;24.60;;;;;;;;;;5091634;28;20455;-66
2022/12/25 06:17:37;;;;;;;59.72;23.25;;;;;;;;;;5090061;28;20055;-66
2022/12/25 06:20:03;;;;;;;79.10;25.42;;;;;;;;;;5090462;28;20056;-66
2022/12/25 06:22:30;;;;;;;63.92;24.50;;;;;;;;;;5090853;28;20040;-66
2022/12/25 06:24:56;;;;;;;60.53;23.98;;;;;;;;;;5090984;28;20040;-66
2022/12/25 06:27:22;;;;;;;74.93;25.33;;;;;;;;;;5069675;28;20033;-66
2022/12/25 06:29:47;;;;;;;60.35;23.50;;;;;;;;;;5071049;28;20526;-66
2022/12/25 06:32:13;;;;;;;60.40;23.15;;;;;;;;;;5069771;28;20064;-66
2022/12/25 06:34:39;;;;;;;59.13;22.40;;;;;;;;;;5070086;28;20095;-66
2022/12/25 06:37:05;;;;;;;59.78;22.85;;;;;;;;;;5069373;28;20051;-66
2022/12/25 06:39:31;;;;;;;60.60;22.45;;;;;;;;;;5069839;28;20040;-66
2022/12/25 06:41:57;;;;;;;63.10;23.10;;;;;;;;;;5069358;28;20044;-66
2022/12/25 06:44:23;;;;;;;61.00;22.92;;;;;;;;;;5070838;28;20505;-66
2022/12/25 06:46:51;;;;;;;49.45;21.27;;;;;;;;;;5069190;28;20581;-66
2022/12/25 06:49:17;;;;;;;57.75;22.83;;;;;;;;;;5069365;28;20477;-66
2022/12/25 06:51:43;;;;;;;49.42;21.42;;;;;;;;;;5069075;28;20183;-66
2022/12/25 06:54:09;;;;;;;54.53;21.75;;;;;;;;;;5069127;28;20493;-66
2022/12/25 06:56:35;;;;;;;51.70;21.15;;;;;;;;;;5070644;28;20040;-66
2022/12/25 06:59:02;;;;;;;50.40;19.98;;;;;;;;;;5070478;28;20047;-66
2022/12/25 07:01:30;;;;;;;55.65;21.02;;;;;;;;;;5068857;28;20040;-66
2022/12/25 07:03:57;;;;;;;49.38;20.98;;;;;;;;;;5069345;28;20044;-66
2022/12/25 07:06:23;;;;;;;52.88;19.90;;;;;;;;;;5070346;28;20045;-66
2022/12/25 07:08:49;;;;;;;43.13;19.50;;;;;;;;;;5066689;28;20457;-66
2022/12/25 07:11:15;;;;;;;47.03;19.95;;;;;;;;;;5077647;28;20443;-66
2022/12/25 07:13:41;;;;;;;45.42;19.23;;;;;;;;;;5088908;28;20346;-66
2022/12/25 07:16:07;;;;;;;43.58;19.27;;;;;;;;;;5089048;28;20044;-66
2022/12/25 07:18:34;;;;;;;43.78;19.55;;;;;;;;;;5090189;28;20525;-66
2022/12/25 07:21:11;;;;;;;38.55;18.08;;;;;;;;;;5090642;28;20109;-66
2022/12/25 07:23:37;;;;;;;43.83;19.02;;;;;;;;;;5089916;28;20035;-66
2022/12/25 07:26:03;;;;;;;39.28;17.80;;;;;;;;;;5080426;28;20037;-66
2022/12/25 07:28:30;;;;;;;40.28;17.88;;;;;;;;;;5068517;28;20048;-66
2022/12/25 07:31:00;;;;;;;42.72;18.55;;;;;;;;;;5069568;28;20047;-66
2022/12/25 07:33:26;;;;;;;38.42;17.13;;;;;;;;;;5068596;28;20437;-66
2022/12/25 07:35:52;;;;;;;42.70;16.45;;;;;;;;;;5068395;28;20040;-66
2022/12/25 07:38:18;;;;;;;46.15;17.35;;;;;;;;;;5067717;28;20482;-66
2022/12/25 07:40:45;;;;;;;35.83;16.27;;;;;;;;;;5068681;28;20378;-66
2022/12/25 07:43:11;;;;;;;39.38;16.85;;;;;;;;;;5068169;28;20162;-66
2022/12/25 07:45:37;;;;;;;38.60;16.38;;;;;;;;;;5067866;28;20063;-66
2022/12/25 07:48:03;;;;;;;33.22;16.08;;;;;;;;;;5069658;28;20112;-66
2022/12/25 07:50:29;;;;;;;35.13;15.73;;;;;;;;;;5068538;28;20494;-66
2022/12/25 07:52:55;;;;;;;34.40;15.80;;;;;;;;;;5069142;28;20368;-66
2022/12/25 07:55:21;;;;;;;32.22;15.32;;;;;;;;;;5068336;28;20044;-66
2022/12/25 07:57:47;;;;;;;29.60;13.68;;;;;;;;;;5069454;28;20096;-66
2022/12/25 08:00:14;;;;;;;28.13;14.20;;;;;;;;;;5067675;28;20064;-66
2022/12/25 08:02:40;;;;;;;33.45;15.52;;;;;;;;;;5069251;28;20487;-66
2022/12/25 08:05:06;;;;;;;34.28;16.92;;;;;;;;;;5068207;28;20050;-66
2022/12/25 08:07:32;;;;;;;31.17;15.48;;;;;;;;;;5067407;28;20059;-66
2022/12/25 08:09:58;;;;;;;26.40;14.55;;;;;;;;;;5064554;28;20068;-66
2022/12/25 08:12:24;;;;;;;30.63;15.30;;;;;;;;;;5087974;28;20514;-66
2022/12/25 08:14:50;;;;;;;28.92;13.27;;;;;;;;;;5087850;28;20239;-66
2022/12/25 08:17:16;;;;;;;27.02;13.68;;;;;;;;;;5088166;28;20055;-66
2022/12/25 08:19:42;;;;;;;30.15;12.77;;;;;;;;;;5088997;28;20066;-66
2022/12/25 08:22:08;;;;;;;26.35;11.68;;;;;;;;;;5087616;28;20495;-66
2022/12/25 08:24:34;;;;;;;30.40;11.88;;;;;;;;;;5087937;28;20134;-66
2022/12/25 08:27:00;;;;;;;26.45;11.75;;;;;;;;;;5071320;28;20036;-66
2022/12/25 08:29:27;;;;;;;25.52;11.55;;;;;;;;;;5067205;28;20383;-66
2022/12/25 08:31:54;;;;;;;21.75;11.00;;;;;;;;;;5067936;28;20048;-66
2022/12/25 08:34:20;;;;;;;25.85;11.55;;;;;;;;;;5069383;28;20043;-66
2022/12/25 08:36:46;;;;;;;23.42;10.77;;;;;;;;;;5067461;28;20040;-66
2022/12/25 08:39:12;;;;;;;19.58;10.90;;;;;;;;;;5067623;28;20040;-66
2022/12/25 08:41:39;;;;;;;25.65;11.30;;;;;;;;;;5069046;28;20050;-66
2022/12/25 08:44:05;;;;;;;21.15;12.02;;;;;;;;;;5050717;28;20543;-66
2022/12/25 08:46:31;;;;;;;22.52;11.20;;;;;;;;;;5067663;28;20049;-66
2022/12/25 08:48:57;;;;;;;24.20;14.30;;;;;;;;;;5051090;28;20044;-66
2022/12/25 08:51:24;;;;;;;24.90;12.68;;;;;;;;;;5066935;28;20496;-66
2022/12/25 08:53:51;;;;;;;21.95;11.32;;;;;;;;;;5067628;28;20040;-66
2022/12/25 08:56:18;;;;;;;24.30;10.18;;;;;;;;;;5068900;28;20068;-66
2022/12/25 08:58:44;;;;;;;21.25;10.70;;;;;;;;;;5066914;28;20414;-66
2022/12/25 09:01:11;;;;;;;23.80;10.18;;;;;;;;;;5069007;28;20076;-66
2022/12/25 09:03:37;;;;;;;24.65;10.20;;;;;;;;;;5068911;28;20047;-66
2022/12/25 09:06:04;;;;;;;23.63;11.23;;;;;;;;;;5068090;28;20467;-66
2022/12/25 09:08:30;;;;;;;25.45;9.98;;;;;;;;;;5067304;28;20044;-66
2022/12/25 09:10:56;;;;;;;16.85;9.48;;;;;;;;;;5071373;28;20063;-66
2022/12/25 09:13:22;;;;;;;24.65;10.20;;;;;;;;;;5088430;28;20040;-66
2022/12/25 09:15:48;;;;;;;21.52;10.30;;;;;;;;;;5087245;28;20434;-66
2022/12/25 09:18:14;;;;;;;22.45;9.30;;;;;;;;;;5087307;28;20044;-66
2022/12/25 09:20:40;;;;;;;18.23;9.40;;;;;;;;;;5089016;28;20040;-66
2022/12/25 09:23:06;;;;;;;19.42;9.30;;;;;;;;;;5092697;28;20044;-66
2022/12/25 09:25:32;;;;;;;19.55;9.55;;;;;;;;;;5085531;28;20044;-66
2022/12/25 09:27:58;;;;;;;21.65;9.80;;;;;;;;;;5070642;28;20508;-66
2022/12/25 09:30:24;;;;;;;21.08;9.90;;;;;;;;;;5072300;28;20040;-66
2022/12/25 09:32:50;;;;;;;20.88;9.15;;;;;;;;;;5070933;28;20040;-66
2022/12/25 09:35:17;;;;;;;16.52;9.80;;;;;;;;;;5070330;28;20071;-66
2022/12/25 09:37:44;;;;;;;18.63;8.90;;;;;;;;;;5072265;28;20102;-66
2022/12/25 09:40:13;;;;;;;19.58;8.75;;;;;;;;;;5072132;28;20035;-66
2022/12/25 09:42:39;;;;;;;15.40;8.95;;;;;;;;;;5071825;28;20036;-66
2022/12/25 09:45:14;;;;;;;21.15;9.70;;;;;;;;;;5072130;28;20128;-66
2022/12/25 09:47:42;;;;;;;20.15;9.68;;;;;;;;;;5072171;28;20059;-66
2022/12/25 09:50:14;;;;;;;21.95;10.70;;;;;;;;;;5070123;28;20044;-66
2022/12/25 09:52:46;;;;;;;21.40;9.80;;;;;;;;;;5071884;28;20029;-66
2022/12/25 09:55:17;;;;;;;19.02;9.93;;;;;;;;;;5071953;28;20092;-66
2022/12/25 09:57:42;;;;;;;20.90;9.20;;;;;;;;;;5070177;28;20040;-66
2022/12/25 10:00:16;;;;;;;15.70;8.50;;;;;;;;;;5071424;28;20097;-66
2022/12/25 10:03:12;;;;;;;20.80;8.93;;;;;;;;;;5070148;28;20410;-66
2022/12/25 10:05:37;;;;;;;20.05;8.70;;;;;;;;;;5053638;28;20057;-66
2022/12/25 10:08:09;;;;;;;17.92;8.45;;;;;;;;;;5071838;28;20360;-66
2022/12/25 10:10:42;;;;;;;20.50;9.35;;;;;;;;;;5072747;28;20045;-66
2022/12/25 10:13:11;;;;;;;16.48;8.60;;;;;;;;;;5091472;28;20056;-66
2022/12/25 10:15:46;;;;;;;19.85;8.48;;;;;;;;;;5091507;28;20088;-66
2022/12/25 10:18:34;;;;;;;21.70;8.57;;;;;;;;;;5090293;28;20062;-66
2022/12/25 10:21:01;;;;;;;15.32;8.32;;;;;;;;;;5089758;28;20040;-66
2022/12/25 10:23:28;;;;;;;22.73;8.55;;;;;;;;;;5090347;28;20501;-67
2022/12/25 10:25:54;;;;;;;14.95;7.78;;;;;;;;;;5081404;28;20052;-67
2022/12/25 10:28:33;;;;;;;15.98;8.10;;;;;;;;;;5071032;28;20033;-67
2022/12/25 10:31:01;;;;;;;17.00;8.02;;;;;;;;;;5069914;28;20048;-66
2022/12/25 10:33:27;;;;;;;20.92;9.70;;;;;;;;;;5068733;28;20425;-66
2022/12/25 10:35:53;;;;;;;20.52;9.95;;;;;;;;;;5070813;28;20041;-66
2022/12/25 10:38:20;;;;;;;16.92;8.57;;;;;;;;;;5070937;28;20456;-66
2022/12/25 10:40:46;;;;;;;16.35;7.95;;;;;;;;;;5069765;28;20406;-66
2022/12/25 10:43:17;;;;;;;14.10;8.18;;;;;;;;;;5069401;28;20045;-66
2022/12/25 10:45:44;;;;;;;15.82;8.30;;;;;;;;;;5069238;28;20399;-66
2022/12/25 10:48:16;;;;;;;17.42;8.05;;;;;;;;;;5071076;28;20041;-66
2022/12/25 10:50:42;;;;;;;20.67;8.55;;;;;;;;;;5068946;28;20119;-66
2022/12/25 10:53:17;;;;;;;22.50;10.13;;;;;;;;;;5070523;28;20044;-66
2022/12/25 10:55:53;;;;;;;20.77;7.88;;;;;;;;;;5069235;28;20041;-66
2022/12/25 10:58:19;;;;;;;18.13;7.85;;;;;;;;;;5070314;28;20181;-66
2022/12/25 11:00:51;;;;;;;19.52;8.27;;;;;;;;;;5069245;28;20481;-66
2022/12/25 11:03:26;;;;;;;19.00;7.57;;;;;;;;;;5068932;28;20048;-67
2022/12/25 11:05:53;;;;;;;22.98;7.88;;;;;;;;;;5069049;28;20045;-66
2022/12/25 11:08:20;;;;;;;16.58;7.30;;;;;;;;;;5070441;28;20051;-66
2022/12/25 11:10:51;;;;;;;15.65;7.43;;;;;;;;;;5072644;28;20051;-66
2022/12/25 11:13:23;;;;;;;17.42;7.40;;;;;;;;;;5090350;28;20097;-66
2022/12/25 11:15:50;;;;;;;18.13;8.30;;;;;;;;;;5090320;28;20105;-66
2022/12/25 11:18:22;;;;;;;15.40;7.90;;;;;;;;;;5088743;28;20048;-66
2022/12/25 11:20:58;;;;;;;16.08;6.78;;;;;;;;;;5090502;28;20052;-66
2022/12/25 11:23:25;;;;;;;15.25;7.47;;;;;;;;;;5089043;28;20090;-66
2022/12/25 11:25:55;;;;;;;18.83;7.70;;;;;;;;;;5080419;28;20437;-66
2022/12/25 11:28:21;;;;;;;15.40;7.28;;;;;;;;;;5068689;28;20402;-66
2022/12/25 11:30:52;;;;;;;17.58;7.57;;;;;;;;;;5068553;28;20087;-66
2022/12/25 11:33:18;;;;;;;16.67;7.28;;;;;;;;;;5069413;28;20469;-66
2022/12/25 11:35:51;;;;;;;19.80;8.00;;;;;;;;;;5068799;28;20051;-66
2022/12/25 11:38:18;;;;;;;13.32;7.38;;;;;;;;;;5068485;28;20052;-66
2022/12/25 11:40:46;;;;;;;12.30;7.07;;;;;;;;;;5068129;28;20402;-66
2022/12/25 11:43:25;;;;;;;17.65;8.43;;;;;;;;;;5052299;28;20805;-66
2022/12/25 11:45:54;;;;;;;17.73;8.07;;;;;;;;;;5068120;28;20055;-66
2022/12/25 11:48:27;;;;;;;12.88;7.70;;;;;;;;;;5067854;28;20091;-66
2022/12/25 11:50:55;;;;;;;16.23;8.02;;;;;;;;;;5068278;28;20048;-66
2022/12/25 11:53:37;;;;;;;13.75;7.63;;;;;;;;;;5068179;28;20131;-66
2022/12/25 11:56:07;;;;;;;14.73;8.30;;;;;;;;;;5069307;28;20078;-66
2022/12/25 11:58:37;;;;;;;16.92;9.05;;;;;;;;;;5068136;28;20133;-66
2022/12/25 12:01:08;;;;;;;20.83;8.65;;;;;;;;;;5068254;28;20475;-66
2022/12/25 12:03:38;;;;;;;14.18;8.45;;;;;;;;;;5067814;28;20048;-66
2022/12/25 12:06:12;;;;;;;18.48;8.23;;;;;;;;;;5068089;28;20375;-66
2022/12/25 12:08:38;;;;;;;15.43;8.48;;;;;;;;;;5067607;28;20044;-66
2022/12/25 12:11:17;;;;;;;13.15;7.85;;;;;;;;;;5073522;28;20039;-66
2022/12/25 12:13:58;;;;;;;17.05;8.90;;;;;;;;;;5089357;28;20036;-66
2022/12/25 12:16:25;;;;;;;17.50;7.63;;;;;;;;;;5089462;28;20039;-66
2022/12/25 12:18:51;;;;;;;18.15;8.65;;;;;;;;;;5088900;28;20134;-66
2022/12/25 12:21:17;;;;;;;16.80;9.30;;;;;;;;;;5087924;28;20098;-66
2022/12/25 12:24:06;;;;;;;14.48;9.15;;;;;;;;;;5089522;28;20071;-66
2022/12/25 12:26:36;;;;;;;16.30;9.57;;;;;;;;;;5065547;28;20061;-66
2022/12/25 12:29:03;;;;;;;17.95;8.77;;;;;;;;;;5067792;28;20059;-66
2022/12/25 12:31:40;;;;;;;20.98;10.57;;;;;;;;;;5067819;28;20592;-66
2022/12/25 12:34:06;;;;;;;20.45;10.55;;;;;;;;;;5068697;28;20402;-66
2022/12/25 12:36:33;;;;;;;22.50;11.30;;;;;;;;;;5067899;28;20051;-66
2022/12/25 12:39:00;;;;;;;25.60;13.25;;;;;;;;;;5067783;28;20041;-66
2022/12/25 12:41:39;;;;;;;22.55;12.40;;;;;;;;;;5067166;28;20126;-66
2022/12/25 12:44:06;;;;;;;17.38;10.65;;;;;;;;;;5067738;28;20547;-66
2022/12/25 12:46:35;;;;;;;19.95;9.77;;;;;;;;;;5050902;28;20040;-66
2022/12/25 12:49:19;;;;;;;20.58;11.38;;;;;;;;;;5067249;28;20044;-66
2022/12/25 12:51:45;;;;;;;18.10;10.38;;;;;;;;;;5068615;28;20037;-66
2022/12/25 12:54:22;;;;;;;16.90;9.98;;;;;;;;;;5067785;28;20044;-66
2022/12/25 12:56:58;;;;;;;18.20;10.27;;;;;;;;;;5071531;28;20052;-66
2022/12/25 12:59:25;;;;;;;17.67;10.38;;;;;;;;;;5073158;28;20445;-66
2022/12/25 13:01:58;;;;;;;20.02;10.18;;;;;;;;;;5071143;28;20051;-66
2022/12/25 13:04:30;;;;;;;17.90;9.80;;;;;;;;;;5071483;28;20049;-67
2022/12/25 13:07:25;;;;;;;14.65;9.00;;;;;;;;;;5071393;28;20105;-67
2022/12/25 13:09:59;;;;;;;19.25;10.27;;;;;;;;;;5078685;28;20051;-67
2022/12/25 13:12:25;;;;;;;18.63;10.65;;;;;;;;;;5091362;28;20078;-67
2022/12/25 13:14:51;;;;;;;23.23;10.20;;;;;;;;;;5091918;28;20071;-67
2022/12/25 13:17:22;;;;;;;18.83;9.95;;;;;;;;;;5090944;28;20588;-67
2022/12/25 13:19:51;;;;;;;21.50;10.23;;;;;;;;;;5092432;28;20129;-67
2022/12/25 13:22:25;;;;;;;15.98;9.82;;;;;;;;;;5092812;28;20051;-67
2022/12/25 13:24:56;;;;;;;17.70;9.73;;;;;;;;;;5073978;28;20047;-67
2022/12/25 13:27:23;;;;;;;17.63;9.32;;;;;;;;;;5051224;28;20365;-67
2022/12/25 13:29:50;;;;;;;18.00;9.77;;;;;;;;;;5051118;28;20051;-67
2022/12/25 13:32:20;;;;;;;22.52;11.32;;;;;;;;;;5050285;28;20036;-67
2022/12/25 13:34:46;;;;;;;19.27;10.38;;;;;;;;;;5050817;28;20041;-67
2022/12/25 13:37:16;;;;;;;22.70;10.77;;;;;;;;;;5052225;28;20040;-67
2022/12/25 13:39:48;;;;;;;18.08;9.57;;;;;;;;;;5050278;28;20059;-67
2022/12/25 13:42:16;;;;;;;22.88;10.75;;;;;;;;;;5051821;28;20088;-66
2022/12/25 13:44:44;;;;;;;23.05;11.25;;;;;;;;;;5052248;28;20121;-66
2022/12/25 13:47:15;;;;;;;22.52;12.05;;;;;;;;;;5050309;28;20056;-66
2022/12/25 13:49:41;;;;;;;25.17;12.73;;;;;;;;;;5050883;28;20124;-66
2022/12/25 13:52:11;;;;;;;23.75;12.23;;;;;;;;;;5051999;28;20123;-66
2022/12/25 13:54:37;;;;;;;22.80;12.20;;;;;;;;;;5049997;28;20037;-67
2022/12/25 13:57:07;;;;;;;32.00;17.17;;;;;;;;;;5050339;28;20216;-67
2022/12/25 13:59:33;;;;;;;29.35;15.00;;;;;;;;;;5050612;28;20290;-67
2022/12/25 14:01:59;;;;;;;23.63;13.00;;;;;;;;;;5049869;28;20047;-67
2022/12/25 14:04:25;;;;;;;26.77;15.65;;;;;;;;;;5051934;28;20579;-67
2022/12/25 14:06:52;;;;;;;27.00;14.90;;;;;;;;;;5049544;28;20045;-67
2022/12/25 14:09:18;;;;;;;26.10;15.52;;;;;;;;;;5049228;28;20045;-67
2022/12/25 14:11:46;;;;;;;25.45;15.80;;;;;;;;;;5087984;28;20079;-67
2022/12/25 14:14:22;;;;;;;29.48;16.50;;;;;;;;;;5091883;28;20491;-67
2022/12/25 14:16:50;;;;;;;25.70;17.15;;;;;;;;;;5089948;28;20117;-67
2022/12/25 14:19:26;;;;;;;29.17;16.52;;;;;;;;;;5091439;28;20087;-67
2022/12/25 14:22:12;;;;;;;24.70;14.68;;;;;;;;;;5090062;28;20143;-67
2022/12/25 14:24:39;;;;;;;26.33;15.85;;;;;;;;;;5089261;28;20139;-67
2022/12/25 14:27:06;;;;;;;25.85;16.50;;;;;;;;;;5073068;28;20048;-67
2022/12/25 14:29:42;;;;;;;24.65;14.93;;;;;;;;;;5070208;28;20671;-67
2022/12/25 14:32:13;;;;;;;25.63;15.68;;;;;;;;;;5070711;28;20183;-67
2022/12/25 14:34:39;;;;;;;28.52;16.38;;;;;;;;;;5069754;28;20461;-67
2022/12/25 14:37:06;;;;;;;27.00;16.17;;;;;;;;;;5069773;28;20055;-67
2022/12/25 14:39:37;;;;;;;25.45;16.80;;;;;;;;;;5070764;28;20086;-67
2022/12/25 14:42:20;;;;;;;23.83;15.82;;;;;;;;;;5069914;28;20566;-67
2022/12/25 14:44:56;;;;;;;24.10;15.30;;;;;;;;;;5069772;28;20040;-67
2022/12/25 14:47:22;;;;;;;24.17;14.95;;;;;;;;;;5052359;28;20051;-67
2022/12/25 14:49:48;;;;;;;22.33;15.93;;;;;;;;;;5069713;28;20076;-67
2022/12/25 14:52:19;;;;;;;24.95;16.35;;;;;;;;;;5070760;28;20079;-67
2022/12/25 14:54:47;;;;;;;22.17;16.17;;;;;;;;;;5068879;28;20155;-67
2022/12/25 14:57:18;;;;;;;29.65;17.17;;;;;;;;;;5069317;28;20402;-67
2022/12/25 14:59:44;;;;;;;22.27;15.70;;;;;;;;;;5069336;28;20051;-67
2022/12/25 15:02:18;;;;;;;25.02;16.88;;;;;;;;;;5068829;28;20040;-67
2022/12/25 15:04:44;;;;;;;27.08;16.92;;;;;;;;;;5069370;28;20072;-67
2022/12/25 15:07:46;;;;;;;28.63;17.65;;;;;;;;;;5069119;28;20048;-67
2022/12/25 15:10:12;;;;;;;26.02;16.30;;;;;;;;;;5000404;28;20482;-67
2022/12/25 15:12:38;;;;;;;22.05;15.77;;;;;;;;;;5052678;28;20113;-67
2022/12/25 15:15:05;;;;;;;23.60;16.58;;;;;;;;;;5088864;28;20036;-67
2022/12/25 15:17:34;;;;;;;27.17;16.88;;;;;;;;;;5089046;28;20040;-67
2022/12/25 15:20:01;;;;;;;28.38;19.77;;;;;;;;;;5089762;28;20498;-67
2022/12/25 15:22:28;;;;;;;25.77;17.95;;;;;;;;;;5088736;28;20040;-67
2022/12/25 15:24:54;;;;;;;29.83;18.98;;;;;;;;;;5089069;28;20044;-67
2022/12/25 15:27:20;;;;;;;25.75;17.45;;;;;;;;;;5066454;28;20044;-67
2022/12/25 15:29:47;;;;;;;27.13;18.70;;;;;;;;;;5066947;28;20044;-67
2022/12/25 15:32:20;;;;;;;23.70;17.40;;;;;;;;;;5066652;28;20041;-66
2022/12/25 15:34:48;;;;;;;22.30;16.45;;;;;;;;;;5070046;28;20070;-66
2022/12/25 15:37:15;;;;;;;21.45;15.30;;;;;;;;;;5070060;28;20594;-66
2022/12/25 15:39:41;;;;;;;22.35;15.20;;;;;;;;;;5053621;28;20044;-66
2022/12/25 15:42:14;;;;;;;22.95;15.45;;;;;;;;;;5068341;28;20064;-66
2022/12/25 15:44:41;;;;;;;22.15;15.63;;;;;;;;;;5067841;28;20055;-66
2022/12/25 15:47:15;;;;;;;21.83;16.00;;;;;;;;;;5068346;28;20121;-66
2022/12/25 15:49:41;;;;;;;27.45;16.27;;;;;;;;;;5068441;28;20044;-66
2022/12/25 15:52:09;;;;;;;29.40;17.33;;;;;;;;;;5067770;28;20391;-66
2022/12/25 15:54:35;;;;;;;23.17;15.93;;;;;;;;;;5068064;28;20036;-66
2022/12/25 15:57:02;;;;;;;23.92;16.83;;;;;;;;;;5068135;28;20079;-66
2022/12/25 15:59:29;;;;;;;23.98;15.98;;;;;;;;;;5050806;28;20044;-66
2022/12/25 16:01:55;;;;;;;20.35;15.90;;;;;;;;;;5068201;28;20094;-66
2022/12/25 16:04:22;;;;;;;24.30;16.98;;;;;;;;;;5067991;28;20047;-66
2022/12/25 16:06:49;;;;;;;23.23;16.65;;;;;;;;;;5067548;28;20053;-66
2022/12/25 16:09:16;;;;;;;23.02;16.25;;;;;;;;;;5067926;28;20028;-66
2022/12/25 16:11:42;;;;;;;24.10;16.63;;;;;;;;;;5085938;28;20089;-66
2022/12/25 16:14:09;;;;;;;24.45;16.50;;;;;;;;;;5088107;28;20048;-66
2022/12/25 16:16:35;;;;;;;24.02;17.80;;;;;;;;;;5088298;28;20043;-66